ěÝzenÝ letovÚho provozu ╚eskÚ republiky
Letiste: LKMT Aktualizace: 25.05.2024 09:01:05  UTC
 METAR LKMT 25.05. 09:00 ...
METAR LKMT 250900Z VRB04KT 9999 -TSRA FEW022CB 19/16 Q1019 NOSIG=
 TAF LKMT 25.05. 05:00 ...
TAF LKMT 250500Z 2506/2606 VRB02KT 6000 NSC      BECMG 2507/2509 24006KT 9999 SCT030      TEMPO 2510/2518 30015KT 6000 SHRA SCT025CB      PROB40 TEMPO 2513/2516 3000 TSRA BKN017CB      BECMG 2601/2603 1200 MIFG BR SCT003      TEMPO 2603/2606 0300 FG VV002=
 WARNING LKMT 25.05. 08:37 ...
LKMT AD WRNG 1 VALID 250838/250945 TS OBS INTSF=